sensor_id;sensor_type;location;lat;lon;timestamp;temperature;humidity
2012;DHT22;1009;51.436;6.972;2023-05-07T00:01:41;16.50;99.90
2012;DHT22;1009;51.436;6.972;2023-05-07T00:04:09;16.60;99.90
2012;DHT22;1009;51.436;6.972;2023-05-07T00:06:36;16.60;99.90
2012;DHT22;1009;51.436;6.972;2023-05-07T00:09:03;16.70;99.90
2012;DHT22;1009;51.436;6.972;2023-05-07T00:11:29;16.70;99.90
2012;DHT22;1009;51.436;6.972;2023-05-07T00:13:56;16.70;99.90
2012;DHT22;1009;51.436;6.972;2023-05-07T00:16:23;16.70;99.90
2012;DHT22;1009;51.436;6.972;2023-05-07T00:18:50;16.70;99.90
2012;DHT22;1009;51.436;6.972;2023-05-07T00:21:18;16.60;99.90
2012;DHT22;1009;51.436;6.972;2023-05-07T00:23:46;16.50;99.90
2012;DHT22;1009;51.436;6.972;2023-05-07T00:26:13;16.60;99.90
2012;DHT22;1009;51.436;6.972;2023-05-07T00:28:40;16.60;99.90
2012;DHT22;1009;51.436;6.972;2023-05-07T00:31:07;16.60;99.90
2012;DHT22;1009;51.436;6.972;2023-05-07T00:33:34;16.60;99.90
2012;DHT22;1009;51.436;6.972;2023-05-07T00:36:01;16.60;99.90
2012;DHT22;1009;51.436;6.972;2023-05-07T00:38:29;16.50;99.90
2012;DHT22;1009;51.436;6.972;2023-05-07T00:40:55;16.50;99.90
2012;DHT22;1009;51.436;6.972;2023-05-07T00:43:22;16.50;99.90
2012;DHT22;1009;51.436;6.972;2023-05-07T00:45:49;16.50;99.90
2012;DHT22;1009;51.436;6.972;2023-05-07T00:48:16;16.50;99.90
2012;DHT22;1009;51.436;6.972;2023-05-07T00:50:43;16.50;99.90
2012;DHT22;1009;51.436;6.972;2023-05-07T00:53:10;16.50;99.90
2012;DHT22;1009;51.436;6.972;2023-05-07T00:55:39;16.40;99.90
2012;DHT22;1009;51.436;6.972;2023-05-07T00:58:06;16.40;99.90
2012;DHT22;1009;51.436;6.972;2023-05-07T01:00:33;16.30;99.90
2012;DHT22;1009;51.436;6.972;2023-05-07T01:03:01;16.30;99.90
2012;DHT22;1009;51.436;6.972;2023-05-07T01:05:28;16.20;99.90
2012;DHT22;1009;51.436;6.972;2023-05-07T01:07:58;16.20;99.90
2012;DHT22;1009;51.436;6.972;2023-05-07T01:10:26;16.10;99.90
2012;DHT22;1009;51.436;6.972;2023-05-07T01:12:54;16.00;99.90
2012;DHT22;1009;51.436;6.972;2023-05-07T01:15:26;15.90;99.90
2012;DHT22;1009;51.436;6.972;2023-05-07T01:17:53;15.90;99.90
2012;DHT22;1009;51.436;6.972;2023-05-07T01:20:20;15.90;99.90
2012;DHT22;1009;51.436;6.972;2023-05-07T01:22:51;16.00;99.90
2012;DHT22;1009;51.436;6.972;2023-05-07T01:25:19;16.00;99.90
2012;DHT22;1009;51.436;6.972;2023-05-07T01:27:46;16.00;99.90
2012;DHT22;1009;51.436;6.972;2023-05-07T01:30:13;16.00;99.90
2012;DHT22;1009;51.436;6.972;2023-05-07T01:32:43;15.80;99.90
2012;DHT22;1009;51.436;6.972;2023-05-07T01:35:12;15.80;99.90
2012;DHT22;1009;51.436;6.972;2023-05-07T01:37:40;15.80;99.90
2012;DHT22;1009;51.436;6.972;2023-05-07T01:40:10;15.80;99.90
2012;DHT22;1009;51.436;6.972;2023-05-07T01:42:37;15.90;99.90
2012;DHT22;1009;51.436;6.972;2023-05-07T01:45:05;15.90;99.90
2012;DHT22;1009;51.436;6.972;2023-05-07T01:47:32;15.90;99.90
2012;DHT22;1009;51.436;6.972;2023-05-07T01:49:59;16.00;99.90
2012;DHT22;1009;51.436;6.972;2023-05-07T01:52:27;16.00;99.90
2012;DHT22;1009;51.436;6.972;2023-05-07T01:54:54;16.00;99.90
2012;DHT22;1009;51.436;6.972;2023-05-07T01:57:22;16.00;99.90
2012;DHT22;1009;51.436;6.972;2023-05-07T01:59:49;16.00;99.90
2012;DHT22;1009;51.436;6.972;2023-05-07T02:02:16;16.00;99.90
2012;DHT22;1009;51.436;6.972;2023-05-07T02:04:42;15.90;99.90
2012;DHT22;1009;51.436;6.972;2023-05-07T02:07:09;15.90;99.90
2012;DHT22;1009;51.436;6.972;2023-05-07T02:09:36;15.90;99.90
2012;DHT22;1009;51.436;6.972;2023-05-07T02:12:03;15.90;99.90
2012;DHT22;1009;51.436;6.972;2023-05-07T02:14:32;15.90;99.90
2012;DHT22;1009;51.436;6.972;2023-05-07T02:16:58;16.00;99.90
2012;DHT22;1009;51.436;6.972;2023-05-07T02:19:25;15.90;99.90
2012;DHT22;1009;51.436;6.972;2023-05-07T02:21:52;15.90;99.90
2012;DHT22;1009;51.436;6.972;2023-05-07T02:24:19;15.90;99.90
2012;DHT22;1009;51.436;6.972;2023-05-07T02:26:46;15.90;99.90
2012;DHT22;1009;51.436;6.972;2023-05-07T02:29:13;15.90;99.90
2012;DHT22;1009;51.436;6.972;2023-05-07T02:31:41;15.90;99.90
2012;DHT22;1009;51.436;6.972;2023-05-07T02:34:07;15.90;99.90
2012;DHT22;1009;51.436;6.972;2023-05-07T02:36:34;15.80;99.90
2012;DHT22;1009;51.436;6.972;2023-05-07T02:39:01;15.90;99.90
2012;DHT22;1009;51.436;6.972;2023-05-07T02:41:28;15.90;99.90
2012;DHT22;1009;51.436;6.972;2023-05-07T02:43:54;15.90;99.90
2012;DHT22;1009;51.436;6.972;2023-05-07T02:46:21;15.90;99.90
2012;DHT22;1009;51.436;6.972;2023-05-07T02:48:49;15.90;99.90
2012;DHT22;1009;51.436;6.972;2023-05-07T02:51:19;15.90;99.90
2012;DHT22;1009;51.436;6.972;2023-05-07T02:53:46;15.90;99.90
2012;DHT22;1009;51.436;6.972;2023-05-07T02:56:12;15.90;99.90
2012;DHT22;1009;51.436;6.972;2023-05-07T02:58:39;15.90;99.90
2012;DHT22;1009;51.436;6.972;2023-05-07T03:01:07;15.80;99.90
2012;DHT22;1009;51.436;6.972;2023-05-07T03:03:34;15.80;99.90
2012;DHT22;1009;51.436;6.972;2023-05-07T03:06:03;15.70;99.90
2012;DHT22;1009;51.436;6.972;2023-05-07T03:08:30;15.70;99.90
2012;DHT22;1009;51.436;6.972;2023-05-07T03:10:56;15.70;99.90
2012;DHT22;1009;51.436;6.972;2023-05-07T03:13:23;15.60;99.90
2012;DHT22;1009;51.436;6.972;2023-05-07T03:15:56;15.50;99.90
2012;DHT22;1009;51.436;6.972;2023-05-07T03:18:22;15.50;99.90
2012;DHT22;1009;51.436;6.972;2023-05-07T03:20:49;15.60;99.90
2012;DHT22;1009;51.436;6.972;2023-05-07T03:23:17;15.60;99.90
2012;DHT22;1009;51.436;6.972;2023-05-07T03:25:44;15.40;99.90
2012;DHT22;1009;51.436;6.972;2023-05-07T03:28:11;15.40;99.90
2012;DHT22;1009;51.436;6.972;2023-05-07T03:30:37;15.30;99.90
2012;DHT22;1009;51.436;6.972;2023-05-07T03:33:10;15.30;99.90
2012;DHT22;1009;51.436;6.972;2023-05-07T03:35:36;15.30;99.90
2012;DHT22;1009;51.436;6.972;2023-05-07T03:38:03;15.40;99.90
2012;DHT22;1009;51.436;6.972;2023-05-07T03:40:31;15.40;99.90
2012;DHT22;1009;51.436;6.972;2023-05-07T03:42:59;15.40;99.90
2012;DHT22;1009;51.436;6.972;2023-05-07T03:45:26;15.40;99.90
2012;DHT22;1009;51.436;6.972;2023-05-07T03:47:53;15.40;99.90
2012;DHT22;1009;51.436;6.972;2023-05-07T03:50:19;15.40;99.90
2012;DHT22;1009;51.436;6.972;2023-05-07T03:52:46;15.40;99.90
2012;DHT22;1009;51.436;6.972;2023-05-07T03:55:13;15.40;99.90
2012;DHT22;1009;51.436;6.972;2023-05-07T03:57:41;15.30;99.90
2012;DHT22;1009;51.436;6.972;2023-05-07T04:00:08;15.30;99.90
2012;DHT22;1009;51.436;6.972;2023-05-07T04:02:35;15.30;99.90
2012;DHT22;1009;51.436;6.972;2023-05-07T04:05:02;15.30;99.90
2012;DHT22;1009;51.436;6.972;2023-05-07T04:07:29;15.40;99.90
2012;DHT22;1009;51.436;6.972;2023-05-07T04:10:02;15.40;99.90
2012;DHT22;1009;51.436;6.972;2023-05-07T04:12:31;15.40;99.90
2012;DHT22;1009;51.436;6.972;2023-05-07T04:14:59;15.40;99.90
2012;DHT22;1009;51.436;6.972;2023-05-07T04:17:26;15.40;99.90
2012;DHT22;1009;51.436;6.972;2023-05-07T04:19:52;15.30;99.90
2012;DHT22;1009;51.436;6.972;2023-05-07T04:22:19;15.40;99.90
2012;DHT22;1009;51.436;6.972;2023-05-07T04:24:46;15.40;99.90
2012;DHT22;1009;51.436;6.972;2023-05-07T04:27:12;15.40;99.90
2012;DHT22;1009;51.436;6.972;2023-05-07T04:29:39;15.40;99.90
2012;DHT22;1009;51.436;6.972;2023-05-07T04:32:13;15.50;99.90
2012;DHT22;1009;51.436;6.972;2023-05-07T04:34:40;15.50;99.90
2012;DHT22;1009;51.436;6.972;2023-05-07T04:37:07;15.50;99.90
2012;DHT22;1009;51.436;6.972;2023-05-07T04:39:34;15.50;99.90
2012;DHT22;1009;51.436;6.972;2023-05-07T04:42:00;15.60;99.90
2012;DHT22;1009;51.436;6.972;2023-05-07T04:44:28;15.60;99.90
2012;DHT22;1009;51.436;6.972;2023-05-07T04:46:56;15.60;99.90
2012;DHT22;1009;51.436;6.972;2023-05-07T04:49:24;15.70;99.90
2012;DHT22;1009;51.436;6.972;2023-05-07T04:51:51;15.70;99.90
2012;DHT22;1009;51.436;6.972;2023-05-07T04:54:17;15.70;99.90
2012;DHT22;1009;51.436;6.972;2023-05-07T04:56:44;15.70;99.90
2012;DHT22;1009;51.436;6.972;2023-05-07T04:59:11;15.60;99.90
2012;DHT22;1009;51.436;6.972;2023-05-07T05:01:37;15.70;99.90
2012;DHT22;1009;51.436;6.972;2023-05-07T05:04:04;15.70;99.90
2012;DHT22;1009;51.436;6.972;2023-05-07T05:06:32;15.70;99.90
2012;DHT22;1009;51.436;6.972;2023-05-07T05:08:59;15.70;99.90
2012;DHT22;1009;51.436;6.972;2023-05-07T05:11:26;15.70;99.90
2012;DHT22;1009;51.436;6.972;2023-05-07T05:13:52;15.70;99.90
2012;DHT22;1009;51.436;6.972;2023-05-07T05:16:19;15.70;99.90
2012;DHT22;1009;51.436;6.972;2023-05-07T05:18:46;15.70;99.90
2012;DHT22;1009;51.436;6.972;2023-05-07T05:21:12;15.70;99.90
2012;DHT22;1009;51.436;6.972;2023-05-07T05:23:40;15.70;99.90
2012;DHT22;1009;51.436;6.972;2023-05-07T05:26:07;15.70;99.90
2012;DHT22;1009;51.436;6.972;2023-05-07T05:28:34;15.80;99.90
2012;DHT22;1009;51.436;6.972;2023-05-07T05:31:04;15.80;99.90
2012;DHT22;1009;51.436;6.972;2023-05-07T05:33:31;15.80;99.90
2012;DHT22;1009;51.436;6.972;2023-05-07T05:35:58;15.80;99.90
2012;DHT22;1009;51.436;6.972;2023-05-07T05:38:25;15.80;99.90
2012;DHT22;1009;51.436;6.972;2023-05-07T05:40:53;15.70;99.90
2012;DHT22;1009;51.436;6.972;2023-05-07T05:43:20;15.70;99.90
2012;DHT22;1009;51.436;6.972;2023-05-07T05:45:47;15.60;99.90
2012;DHT22;1009;51.436;6.972;2023-05-07T05:48:13;15.70;99.90
2012;DHT22;1009;51.436;6.972;2023-05-07T05:50:41;15.80;99.90
2012;DHT22;1009;51.436;6.972;2023-05-07T05:53:08;15.80;99.90
2012;DHT22;1009;51.436;6.972;2023-05-07T05:55:35;15.90;99.90
2012;DHT22;1009;51.436;6.972;2023-05-07T05:58:03;16.00;99.90
2012;DHT22;1009;51.436;6.972;2023-05-07T06:00:30;16.20;99.90
2012;DHT22;1009;51.436;6.972;2023-05-07T06:02:56;16.30;99.90
2012;DHT22;1009;51.436;6.972;2023-05-07T06:05:23;16.30;99.90
2012;DHT22;1009;51.436;6.972;2023-05-07T06:07:50;16.40;99.90
2012;DHT22;1009;51.436;6.972;2023-05-07T06:10:19;16.50;99.90
2012;DHT22;1009;51.436;6.972;2023-05-07T06:12:46;16.50;99.90
2012;DHT22;1009;51.436;6.972;2023-05-07T06:15:14;16.50;99.90
2012;DHT22;1009;51.436;6.972;2023-05-07T06:17:41;16.50;99.90
2012;DHT22;1009;51.436;6.972;2023-05-07T06:20:08;16.60;99.90
2012;DHT22;1009;51.436;6.972;2023-05-07T06:22:35;16.70;99.90
2012;DHT22;1009;51.436;6.972;2023-05-07T06:25:02;16.60;99.90
2012;DHT22;1009;51.436;6.972;2023-05-07T06:27:31;16.70;99.90
2012;DHT22;1009;51.436;6.972;2023-05-07T06:29:58;16.80;99.90
2012;DHT22;1009;51.436;6.972;2023-05-07T06:32:26;16.90;99.90
2012;DHT22;1009;51.436;6.972;2023-05-07T06:34:53;17.00;99.90
2012;DHT22;1009;51.436;6.972;2023-05-07T06:37:19;17.00;99.90
2012;DHT22;1009;51.436;6.972;2023-05-07T06:39:46;17.10;99.90
2012;DHT22;1009;51.436;6.972;2023-05-07T06:42:13;17.10;99.90
2012;DHT22;1009;51.436;6.972;2023-05-07T06:44:40;17.10;99.90
2012;DHT22;1009;51.436;6.972;2023-05-07T06:47:06;17.10;99.90
2012;DHT22;1009;51.436;6.972;2023-05-07T06:49:34;17.20;99.90
2012;DHT22;1009;51.436;6.972;2023-05-07T06:52:04;17.20;99.90
2012;DHT22;1009;51.436;6.972;2023-05-07T06:54:33;17.20;99.90
2012;DHT22;1009;51.436;6.972;2023-05-07T06:57:00;17.30;99.90
2012;DHT22;1009;51.436;6.972;2023-05-07T06:59:27;17.30;99.90
2012;DHT22;1009;51.436;6.972;2023-05-07T07:01:54;17.30;99.90
2012;DHT22;1009;51.436;6.972;2023-05-07T07:04:21;17.30;99.90
2012;DHT22;1009;51.436;6.972;2023-05-07T07:06:52;17.30;99.90
2012;DHT22;1009;51.436;6.972;2023-05-07T07:09:18;17.30;99.90
2012;DHT22;1009;51.436;6.972;2023-05-07T07:11:45;17.40;99.90
2012;DHT22;1009;51.436;6.972;2023-05-07T07:14:12;17.40;99.90
2012;DHT22;1009;51.436;6.972;2023-05-07T07:16:38;17.50;99.90
2012;DHT22;1009;51.436;6.972;2023-05-07T07:19:06;17.60;99.90
2012;DHT22;1009;51.436;6.972;2023-05-07T07:21:32;17.70;99.90
2012;DHT22;1009;51.436;6.972;2023-05-07T07:24:00;17.80;99.90
2012;DHT22;1009;51.436;6.972;2023-05-07T07:26:27;17.80;99.90
2012;DHT22;1009;51.436;6.972;2023-05-07T07:28:54;17.80;99.90
2012;DHT22;1009;51.436;6.972;2023-05-07T07:31:20;17.90;99.90
2012;DHT22;1009;51.436;6.972;2023-05-07T07:33:47;18.00;99.90
2012;DHT22;1009;51.436;6.972;2023-05-07T07:36:15;18.10;99.90
2012;DHT22;1009;51.436;6.972;2023-05-07T07:38:42;18.20;99.90
2012;DHT22;1009;51.436;6.972;2023-05-07T07:41:10;18.20;99.90
2012;DHT22;1009;51.436;6.972;2023-05-07T07:43:37;18.30;99.90
2012;DHT22;1009;51.436;6.972;2023-05-07T07:46:04;18.40;99.90
2012;DHT22;1009;51.436;6.972;2023-05-07T07:48:30;18.40;99.90
2012;DHT22;1009;51.436;6.972;2023-05-07T07:50:57;18.40;99.90
2012;DHT22;1009;51.436;6.972;2023-05-07T07:53:24;18.30;99.90
2012;DHT22;1009;51.436;6.972;2023-05-07T07:55:51;18.20;99.90
2012;DHT22;1009;51.436;6.972;2023-05-07T07:58:19;18.20;99.90
2012;DHT22;1009;51.436;6.972;2023-05-07T08:00:47;18.10;99.90
2012;DHT22;1009;51.436;6.972;2023-05-07T08:03:14;18.00;99.90
2012;DHT22;1009;51.436;6.972;2023-05-07T08:05:42;18.20;99.90
2012;DHT22;1009;51.436;6.972;2023-05-07T08:08:09;18.40;99.90
2012;DHT22;1009;51.436;6.972;2023-05-07T08:10:36;18.50;99.90
2012;DHT22;1009;51.436;6.972;2023-05-07T08:13:10;18.70;99.90
2012;DHT22;1009;51.436;6.972;2023-05-07T08:15:38;18.80;99.90
2012;DHT22;1009;51.436;6.972;2023-05-07T08:18:05;19.00;99.90
2012;DHT22;1009;51.436;6.972;2023-05-07T08:20:32;19.20;99.90
2012;DHT22;1009;51.436;6.972;2023-05-07T08:23:01;19.20;99.90
2012;DHT22;1009;51.436;6.972;2023-05-07T08:25:28;19.30;99.90
2012;DHT22;1009;51.436;6.972;2023-05-07T08:27:54;19.50;99.90
2012;DHT22;1009;51.436;6.972;2023-05-07T08:30:21;19.80;99.90
2012;DHT22;1009;51.436;6.972;2023-05-07T08:32:49;20.10;99.90
2012;DHT22;1009;51.436;6.972;2023-05-07T08:35:16;20.20;99.90
2012;DHT22;1009;51.436;6.972;2023-05-07T08:37:43;20.30;99.90
2012;DHT22;1009;51.436;6.972;2023-05-07T08:40:11;20.50;99.90
2012;DHT22;1009;51.436;6.972;2023-05-07T08:42:38;20.40;99.90
2012;DHT22;1009;51.436;6.972;2023-05-07T08:45:11;20.40;99.90
2012;DHT22;1009;51.436;6.972;2023-05-07T08:47:43;20.40;99.90
2012;DHT22;1009;51.436;6.972;2023-05-07T08:50:13;20.40;99.90
2012;DHT22;1009;51.436;6.972;2023-05-07T08:52:40;20.30;99.90
2012;DHT22;1009;51.436;6.972;2023-05-07T08:55:08;20.40;99.90
2012;DHT22;1009;51.436;6.972;2023-05-07T08:57:35;20.50;99.90
2012;DHT22;1009;51.436;6.972;2023-05-07T09:00:02;20.50;99.90
2012;DHT22;1009;51.436;6.972;2023-05-07T09:02:29;20.50;99.90
2012;DHT22;1009;51.436;6.972;2023-05-07T09:04:56;20.50;99.90
2012;DHT22;1009;51.436;6.972;2023-05-07T09:07:25;20.70;99.90
2012;DHT22;1009;51.436;6.972;2023-05-07T09:09:51;20.80;99.90
2012;DHT22;1009;51.436;6.972;2023-05-07T09:12:20;21.10;99.90
2012;DHT22;1009;51.436;6.972;2023-05-07T09:14:47;21.30;99.90
2012;DHT22;1009;51.436;6.972;2023-05-07T09:17:15;21.40;99.90
2012;DHT22;1009;51.436;6.972;2023-05-07T09:19:43;21.50;99.90
2012;DHT22;1009;51.436;6.972;2023-05-07T09:22:10;21.70;99.90
2012;DHT22;1009;51.436;6.972;2023-05-07T09:24:38;22.00;99.90
2012;DHT22;1009;51.436;6.972;2023-05-07T09:27:06;22.10;99.90
2012;DHT22;1009;51.436;6.972;2023-05-07T09:29:38;22.10;99.90
2012;DHT22;1009;51.436;6.972;2023-05-07T09:32:06;22.30;99.90
2012;DHT22;1009;51.436;6.972;2023-05-07T09:34:36;22.40;99.90
2012;DHT22;1009;51.436;6.972;2023-05-07T09:37:04;22.50;99.90
2012;DHT22;1009;51.436;6.972;2023-05-07T09:39:40;22.40;99.90
2012;DHT22;1009;51.436;6.972;2023-05-07T09:42:07;21.90;99.90
2012;DHT22;1009;51.436;6.972;2023-05-07T09:44:34;21.60;99.90
2012;DHT22;1009;51.436;6.972;2023-05-07T09:47:04;21.40;99.90
2012;DHT22;1009;51.436;6.972;2023-05-07T09:49:34;21.40;99.90
2012;DHT22;1009;51.436;6.972;2023-05-07T09:52:02;21.40;99.90
2012;DHT22;1009;51.436;6.972;2023-05-07T09:54:29;21.40;99.90
2012;DHT22;1009;51.436;6.972;2023-05-07T09:56:58;21.30;99.90
2012;DHT22;1009;51.436;6.972;2023-05-07T09:59:25;21.20;99.90
2012;DHT22;1009;51.436;6.972;2023-05-07T10:01:56;21.10;99.90
2012;DHT22;1009;51.436;6.972;2023-05-07T10:04:24;21.00;99.90
2012;DHT22;1009;51.436;6.972;2023-05-07T10:06:51;21.10;99.90
2012;DHT22;1009;51.436;6.972;2023-05-07T10:09:18;21.40;99.90
2012;DHT22;1009;51.436;6.972;2023-05-07T10:11:46;21.40;99.90
2012;DHT22;1009;51.436;6.972;2023-05-07T10:14:15;21.40;99.90
2012;DHT22;1009;51.436;6.972;2023-05-07T10:16:43;21.40;99.90
2012;DHT22;1009;51.436;6.972;2023-05-07T10:19:10;21.30;99.90
2012;DHT22;1009;51.436;6.972;2023-05-07T10:21:37;21.30;99.90
2012;DHT22;1009;51.436;6.972;2023-05-07T10:24:08;21.50;99.90
2012;DHT22;1009;51.436;6.972;2023-05-07T10:26:40;21.70;99.90
2012;DHT22;1009;51.436;6.972;2023-05-07T10:29:14;21.70;99.90
2012;DHT22;1009;51.436;6.972;2023-05-07T10:31:51;21.70;99.90
2012;DHT22;1009;51.436;6.972;2023-05-07T10:34:22;21.70;99.90
2012;DHT22;1009;51.436;6.972;2023-05-07T10:36:52;21.80;99.90
2012;DHT22;1009;51.436;6.972;2023-05-07T10:39:20;22.00;99.90
2012;DHT22;1009;51.436;6.972;2023-05-07T10:41:47;22.00;99.90
2012;DHT22;1009;51.436;6.972;2023-05-07T10:44:25;22.00;99.90
2012;DHT22;1009;51.436;6.972;2023-05-07T10:47:05;22.20;99.90
2012;DHT22;1009;51.436;6.972;2023-05-07T10:49:35;22.30;99.90
2012;DHT22;1009;51.436;6.972;2023-05-07T10:52:12;22.40;99.90
2012;DHT22;1009;51.436;6.972;2023-05-07T10:54:40;22.40;99.90
2012;DHT22;1009;51.436;6.972;2023-05-07T10:57:33;22.00;99.90
2012;DHT22;1009;51.436;6.972;2023-05-07T11:00:01;21.70;99.90
2012;DHT22;1009;51.436;6.972;2023-05-07T11:05:30;21.80;99.90
2012;DHT22;1009;51.436;6.972;2023-05-07T11:07:58;22.00;99.90
2012;DHT22;1009;51.436;6.972;2023-05-07T11:10:47;22.20;99.90
2012;DHT22;1009;51.436;6.972;2023-05-07T11:13:15;22.30;99.90
2012;DHT22;1009;51.436;6.972;2023-05-07T11:15:43;22.20;99.90
2012;DHT22;1009;51.436;6.972;2023-05-07T11:18:11;22.30;99.90
2012;DHT22;1009;51.436;6.972;2023-05-07T11:20:54;22.20;99.90
2012;DHT22;1009;51.436;6.972;2023-05-07T11:23:57;21.90;99.90
2012;DHT22;1009;51.436;6.972;2023-05-07T11:26:26;21.90;99.90
2012;DHT22;1009;51.436;6.972;2023-05-07T11:28:53;21.90;99.90
2012;DHT22;1009;51.436;6.972;2023-05-07T11:31:22;22.00;99.90
2012;DHT22;1009;51.436;6.972;2023-05-07T11:33:50;22.20;99.90
2012;DHT22;1009;51.436;6.972;2023-05-07T11:36:18;22.40;99.90
2012;DHT22;1009;51.436;6.972;2023-05-07T11:38:46;22.70;99.90
2012;DHT22;1009;51.436;6.972;2023-05-07T11:41:13;23.10;99.90
2012;DHT22;1009;51.436;6.972;2023-05-07T11:43:57;23.30;99.90
2012;DHT22;1009;51.436;6.972;2023-05-07T11:46:28;23.30;99.90
2012;DHT22;1009;51.436;6.972;2023-05-07T11:48:55;22.80;99.90
2012;DHT22;1009;51.436;6.972;2023-05-07T11:51:24;22.40;99.90
2012;DHT22;1009;51.436;6.972;2023-05-07T11:53:52;22.40;99.90
2012;DHT22;1009;51.436;6.972;2023-05-07T11:56:19;22.10;99.90
2012;DHT22;1009;51.436;6.972;2023-05-07T11:58:47;21.90;99.90
2012;DHT22;1009;51.436;6.972;2023-05-07T12:01:15;21.70;99.90
2012;DHT22;1009;51.436;6.972;2023-05-07T12:03:44;21.60;99.90
2012;DHT22;1009;51.436;6.972;2023-05-07T12:06:13;21.70;99.90
2012;DHT22;1009;51.436;6.972;2023-05-07T12:08:42;21.90;99.90
2012;DHT22;1009;51.436;6.972;2023-05-07T12:11:13;22.00;99.90
2012;DHT22;1009;51.436;6.972;2023-05-07T12:13:41;21.90;99.90
2012;DHT22;1009;51.436;6.972;2023-05-07T12:16:09;22.00;99.90
2012;DHT22;1009;51.436;6.972;2023-05-07T12:18:37;22.00;99.90
2012;DHT22;1009;51.436;6.972;2023-05-07T12:21:05;21.90;99.90
2012;DHT22;1009;51.436;6.972;2023-05-07T12:23:33;21.60;99.90
2012;DHT22;1009;51.436;6.972;2023-05-07T12:26:05;21.40;99.90
2012;DHT22;1009;51.436;6.972;2023-05-07T12:28:38;21.40;99.90
2012;DHT22;1009;51.436;6.972;2023-05-07T12:31:05;21.40;99.90
2012;DHT22;1009;51.436;6.972;2023-05-07T12:33:32;21.40;99.90
2012;DHT22;1009;51.436;6.972;2023-05-07T12:36:04;21.50;99.90
2012;DHT22;1009;51.436;6.972;2023-05-07T12:38:36;21.50;99.90
2012;DHT22;1009;51.436;6.972;2023-05-07T12:41:05;21.40;99.90
2012;DHT22;1009;51.436;6.972;2023-05-07T12:43:32;21.40;99.90
2012;DHT22;1009;51.436;6.972;2023-05-07T12:46:03;21.30;99.90
2012;DHT22;1009;51.436;6.972;2023-05-07T12:48:30;21.20;99.90
2012;DHT22;1009;51.436;6.972;2023-05-07T12:50:58;21.20;99.90
2012;DHT22;1009;51.436;6.972;2023-05-07T12:53:27;21.20;99.90
2012;DHT22;1009;51.436;6.972;2023-05-07T12:55:55;21.20;99.90
2012;DHT22;1009;51.436;6.972;2023-05-07T12:58:25;21.30;99.90
2012;DHT22;1009;51.436;6.972;2023-05-07T13:00:53;21.20;99.90
2012;DHT22;1009;51.436;6.972;2023-05-07T13:03:24;21.30;99.90
2012;DHT22;1009;51.436;6.972;2023-05-07T13:05:51;21.30;99.90
2012;DHT22;1009;51.436;6.972;2023-05-07T13:08:25;21.20;99.90
2012;DHT22;1009;51.436;6.972;2023-05-07T13:10:52;21.10;99.90
2012;DHT22;1009;51.436;6.972;2023-05-07T13:13:19;21.10;99.90
2012;DHT22;1009;51.436;6.972;2023-05-07T13:15:50;21.00;99.90
2012;DHT22;1009;51.436;6.972;2023-05-07T13:18:17;20.90;99.90
2012;DHT22;1009;51.436;6.972;2023-05-07T13:20:44;20.90;99.90
2012;DHT22;1009;51.436;6.972;2023-05-07T13:23:10;20.70;99.90
2012;DHT22;1009;51.436;6.972;2023-05-07T13:25:37;20.70;99.90
2012;DHT22;1009;51.436;6.972;2023-05-07T13:28:04;20.80;99.90
2012;DHT22;1009;51.436;6.972;2023-05-07T13:30:31;20.70;99.90
2012;DHT22;1009;51.436;6.972;2023-05-07T13:32:59;20.70;99.90
2012;DHT22;1009;51.436;6.972;2023-05-07T13:35:26;20.60;99.90
2012;DHT22;1009;51.436;6.972;2023-05-07T13:37:53;20.60;99.90
2012;DHT22;1009;51.436;6.972;2023-05-07T13:40:21;20.50;99.90
2012;DHT22;1009;51.436;6.972;2023-05-07T13:42:48;20.50;99.90
2012;DHT22;1009;51.436;6.972;2023-05-07T13:45:15;20.50;99.90
2012;DHT22;1009;51.436;6.972;2023-05-07T13:47:42;20.40;99.90
2012;DHT22;1009;51.436;6.972;2023-05-07T13:50:13;20.40;99.90
2012;DHT22;1009;51.436;6.972;2023-05-07T13:52:41;20.20;99.90
2012;DHT22;1009;51.436;6.972;2023-05-07T13:55:08;20.00;99.90
2012;DHT22;1009;51.436;6.972;2023-05-07T13:57:35;20.00;99.90
2012;DHT22;1009;51.436;6.972;2023-05-07T14:00:03;19.90;99.90
2012;DHT22;1009;51.436;6.972;2023-05-07T14:02:30;20.00;99.90
2012;DHT22;1009;51.436;6.972;2023-05-07T14:04:57;19.80;99.90
2012;DHT22;1009;51.436;6.972;2023-05-07T14:07:25;19.70;99.90
2012;DHT22;1009;51.436;6.972;2023-05-07T14:09:52;19.60;99.90
2012;DHT22;1009;51.436;6.972;2023-05-07T14:12:18;19.60;99.90
2012;DHT22;1009;51.436;6.972;2023-05-07T14:14:45;19.60;99.90
2012;DHT22;1009;51.436;6.972;2023-05-07T14:17:12;19.60;99.90
2012;DHT22;1009;51.436;6.972;2023-05-07T14:19:39;19.60;99.90
2012;DHT22;1009;51.436;6.972;2023-05-07T14:22:05;19.50;99.90
2012;DHT22;1009;51.436;6.972;2023-05-07T14:24:33;19.40;99.90
2012;DHT22;1009;51.436;6.972;2023-05-07T14:27:00;19.30;99.90
2012;DHT22;1009;51.436;6.972;2023-05-07T14:29:28;19.30;99.90
2012;DHT22;1009;51.436;6.972;2023-05-07T14:31:55;19.40;99.90
2012;DHT22;1009;51.436;6.972;2023-05-07T14:34:21;19.40;99.90
2012;DHT22;1009;51.436;6.972;2023-05-07T14:36:48;19.30;99.90
2012;DHT22;1009;51.436;6.972;2023-05-07T14:39:15;19.20;99.90
2012;DHT22;1009;51.436;6.972;2023-05-07T14:41:43;19.30;99.90
2012;DHT22;1009;51.436;6.972;2023-05-07T14:44:10;19.30;99.90
2012;DHT22;1009;51.436;6.972;2023-05-07T14:46:36;19.30;99.90
2012;DHT22;1009;51.436;6.972;2023-05-07T14:49:03;19.20;99.90
2012;DHT22;1009;51.436;6.972;2023-05-07T14:51:30;19.20;99.90
2012;DHT22;1009;51.436;6.972;2023-05-07T14:53:56;19.30;99.90
2012;DHT22;1009;51.436;6.972;2023-05-07T14:56:23;19.30;99.90
2012;DHT22;1009;51.436;6.972;2023-05-07T14:58:51;19.40;99.90
2012;DHT22;1009;51.436;6.972;2023-05-07T15:01:26;19.40;99.90
2012;DHT22;1009;51.436;6.972;2023-05-07T15:03:52;19.40;99.90
2012;DHT22;1009;51.436;6.972;2023-05-07T15:06:20;19.40;99.90
2012;DHT22;1009;51.436;6.972;2023-05-07T15:08:47;19.40;99.90
2012;DHT22;1009;51.436;6.972;2023-05-07T15:11:14;19.50;99.90
2012;DHT22;1009;51.436;6.972;2023-05-07T15:13:42;19.50;99.90
2012;DHT22;1009;51.436;6.972;2023-05-07T15:16:10;19.50;99.90
2012;DHT22;1009;51.436;6.972;2023-05-07T15:18:36;19.50;99.90
2012;DHT22;1009;51.436;6.972;2023-05-07T15:21:03;19.40;99.90
2012;DHT22;1009;51.436;6.972;2023-05-07T15:23:30;19.40;99.90
2012;DHT22;1009;51.436;6.972;2023-05-07T15:25:57;19.50;99.90
2012;DHT22;1009;51.436;6.972;2023-05-07T15:28:24;19.50;99.90
2012;DHT22;1009;51.436;6.972;2023-05-07T15:30:54;19.50;99.90
2012;DHT22;1009;51.436;6.972;2023-05-07T15:33:25;19.40;99.90
2012;DHT22;1009;51.436;6.972;2023-05-07T15:35:51;19.40;99.90
2012;DHT22;1009;51.436;6.972;2023-05-07T15:38:18;19.40;99.90
2012;DHT22;1009;51.436;6.972;2023-05-07T15:40:45;19.40;99.90
2012;DHT22;1009;51.436;6.972;2023-05-07T15:43:11;19.40;99.90
2012;DHT22;1009;51.436;6.972;2023-05-07T15:45:39;19.40;99.90
2012;DHT22;1009;51.436;6.972;2023-05-07T15:48:06;19.40;99.90
2012;DHT22;1009;51.436;6.972;2023-05-07T15:50:34;19.30;99.90
2012;DHT22;1009;51.436;6.972;2023-05-07T15:53:01;19.40;99.90
2012;DHT22;1009;51.436;6.972;2023-05-07T15:55:31;19.20;99.90
2012;DHT22;1009;51.436;6.972;2023-05-07T15:57:58;19.30;99.90
2012;DHT22;1009;51.436;6.972;2023-05-07T16:00:26;19.30;99.90
2012;DHT22;1009;51.436;6.972;2023-05-07T16:02:54;19.30;99.90
2012;DHT22;1009;51.436;6.972;2023-05-07T16:05:21;19.30;99.90
2012;DHT22;1009;51.436;6.972;2023-05-07T16:07:49;19.20;99.90
2012;DHT22;1009;51.436;6.972;2023-05-07T16:10:16;19.20;99.90